createdAt,value
2023-04-04T00:00:38.202Z,100124.34
2023-04-04T00:03:15.049Z,100129.15
2023-04-04T00:05:42.445Z,100129.88
2023-04-04T00:08:09.221Z,100125.76
2023-04-04T00:10:36.005Z,100123.91
2023-04-04T00:13:03.010Z,100117.27
2023-04-04T00:15:30.221Z,100113.00
2023-04-04T00:17:57.988Z,100109.30
2023-04-04T00:20:24.943Z,100114.27
2023-04-04T00:22:51.765Z,100112.57
2023-04-04T00:25:18.609Z,100105.73
2023-04-04T00:27:45.446Z,100094.43
2023-04-04T00:30:12.856Z,100091.91
2023-04-04T00:32:39.876Z,100087.84
2023-04-04T00:35:08.168Z,100085.01
2023-04-04T00:37:35.295Z,100084.48
2023-04-04T00:40:03.620Z,100088.34
2023-04-04T00:42:30.463Z,100090.29
2023-04-04T00:44:57.292Z,100084.16
2023-04-04T00:47:25.814Z,100080.66
2023-04-04T00:49:52.604Z,100073.16
2023-04-04T00:52:19.456Z,100068.25
2023-04-04T00:54:46.305Z,100067.13
2023-04-04T00:57:13.595Z,100069.23
2023-04-04T00:59:41.464Z,100065.33
2023-04-04T01:02:08.393Z,100064.69
2023-04-04T01:04:35.885Z,100063.52
2023-04-04T01:07:04.053Z,100063.89
2023-04-04T01:09:31.817Z,100058.60
2023-04-04T01:11:59.755Z,100057.36
2023-04-04T01:14:26.940Z,100056.34
2023-04-04T01:16:54.197Z,100050.39
2023-04-04T01:19:43.701Z,100049.92
2023-04-04T01:22:17.370Z,100044.92
2023-04-04T01:24:46.916Z,100045.44
2023-04-04T01:27:14.382Z,100044.44
2023-04-04T01:29:46.530Z,100044.29
2023-04-04T01:32:32.803Z,100039.84
2023-04-04T01:35:43.460Z,100035.90
2023-04-04T01:38:13.339Z,100025.84
2023-04-04T01:40:46.219Z,100024.34
2023-04-04T01:43:13.127Z,100013.63
2023-04-04T01:45:41.916Z,100006.60
2023-04-04T01:48:12.040Z,100008.13
2023-04-04T01:50:40.039Z,100003.11
2023-04-04T01:53:07.725Z,99999.16
2023-04-04T01:55:34.539Z,100003.65
2023-04-04T01:58:03.296Z,100004.84
2023-04-04T02:00:30.618Z,100003.86
2023-04-04T02:02:58.167Z,100000.08
2023-04-04T02:05:25.293Z,99997.45
2023-04-04T02:07:52.138Z,100001.45
2023-04-04T02:10:24.351Z,99996.65
2023-04-04T02:12:54.167Z,100001.52
2023-04-04T02:15:23.432Z,100001.54
2023-04-04T02:17:50.761Z,99997.98
2023-04-04T02:20:20.467Z,99995.59
2023-04-04T02:22:52.255Z,100001.94
2023-04-04T02:25:20.554Z,100002.40
2023-04-04T02:27:47.749Z,100005.31
2023-04-04T02:30:15.107Z,100006.00
2023-04-04T02:32:42.641Z,100005.14
2023-04-04T02:35:11.524Z,100011.89
2023-04-04T02:37:38.412Z,100009.66
2023-04-04T02:40:08.760Z,100009.49
2023-04-04T02:42:36.928Z,100008.83
2023-04-04T02:45:04.445Z,100015.17
2023-04-04T02:47:31.330Z,100018.42
2023-04-04T02:49:58.409Z,100021.98
2023-04-04T02:52:26.282Z,100013.52
2023-04-04T02:54:55.058Z,100016.98
2023-04-04T02:57:29.444Z,100014.09
2023-04-04T02:59:56.474Z,100018.98
2023-04-04T03:02:24.521Z,100019.65
2023-04-04T03:04:52.231Z,100018.19
2023-04-04T03:07:19.046Z,100020.02
2023-04-04T03:09:45.886Z,100023.00
2023-04-04T03:12:12.640Z,100028.58
2023-04-04T03:14:40.398Z,100031.74
2023-04-04T03:17:09.097Z,100035.33
2023-04-04T03:19:36.050Z,100036.17
2023-04-04T03:22:02.834Z,100038.77
2023-04-04T03:24:30.958Z,100037.73
2023-04-04T03:27:00.420Z,100041.14
2023-04-04T03:29:27.581Z,100046.63
2023-04-04T03:31:55.229Z,100045.36
2023-04-04T03:34:24.162Z,100049.38
2023-04-04T03:36:53.124Z,100051.58
2023-04-04T03:39:20.613Z,100048.98
2023-04-04T03:41:47.678Z,100044.30
2023-04-04T03:44:14.540Z,100046.11
2023-04-04T03:46:41.353Z,100039.83
2023-04-04T03:49:11.100Z,100034.95
2023-04-04T03:51:39.180Z,100026.66
2023-04-04T03:54:06.378Z,100015.73
2023-04-04T03:56:33.465Z,100012.48
2023-04-04T03:59:02.837Z,100009.40
2023-04-04T04:01:29.701Z,100002.45
2023-04-04T04:03:57.450Z,99992.27
2023-04-04T04:06:24.524Z,99996.08
2023-04-04T04:08:51.509Z,99995.56
2023-04-04T04:11:18.499Z,99997.20
2023-04-04T04:13:45.574Z,99998.33
2023-04-04T04:16:12.460Z,100000.23
2023-04-04T04:18:39.701Z,100003.74
2023-04-04T04:21:10.093Z,100007.83
2023-04-04T04:23:36.846Z,100013.05
2023-04-04T04:26:04.650Z,100018.41
2023-04-04T04:28:33.213Z,100016.23
2023-04-04T04:31:06.895Z,100020.55
2023-04-04T04:33:35.803Z,100025.52
2023-04-04T04:36:05.206Z,100030.80
2023-04-04T04:38:39.790Z,100035.17
2023-04-04T04:41:06.812Z,100041.48
2023-04-04T04:43:40.993Z,100041.99
2023-04-04T04:46:10.944Z,100043.69
2023-04-04T04:48:38.225Z,100041.92
2023-04-04T04:51:05.424Z,100042.04
2023-04-04T04:53:39.195Z,100044.11
2023-04-04T04:56:07.905Z,100041.48
2023-04-04T04:58:35.730Z,100037.48
2023-04-04T05:01:03.259Z,100035.55
2023-04-04T05:03:36.224Z,100039.11
2023-04-04T05:06:04.430Z,100037.52
2023-04-04T05:08:31.200Z,100036.34
2023-04-04T05:11:18.243Z,100020.38
2023-04-04T05:13:45.338Z,100031.91
2023-04-04T05:16:13.417Z,100032.35
2023-04-04T05:18:42.631Z,100031.31
2023-04-04T05:21:10.623Z,100029.20
2023-04-04T05:23:38.268Z,100032.41
2023-04-04T05:26:06.070Z,100030.61
2023-04-04T05:28:35.162Z,100032.44
2023-04-04T05:31:03.951Z,100031.30
2023-04-04T05:33:32.235Z,100036.52
2023-04-04T05:36:12.674Z,100032.84
2023-04-04T05:38:44.341Z,100023.80
2023-04-04T05:41:11.717Z,100023.73
2023-04-04T05:43:38.890Z,100024.65
2023-04-04T05:46:09.429Z,100019.96
2023-04-04T05:48:43.205Z,100020.44
2023-04-04T05:51:11.215Z,100017.08
2023-04-04T05:53:57.627Z,100013.16
2023-04-04T05:56:29.328Z,100010.93
2023-04-04T05:58:57.243Z,100011.34
2023-04-04T06:01:25.578Z,100014.35
2023-04-04T06:03:55.773Z,100014.69
2023-04-04T06:06:27.101Z,100011.09
2023-04-04T06:08:54.234Z,100013.45
2023-04-04T06:11:23.956Z,100013.64
2023-04-04T06:13:54.574Z,100016.19
2023-04-04T06:16:21.879Z,100019.96
2023-04-04T06:18:48.844Z,100024.24
2023-04-04T06:21:15.682Z,100028.79
2023-04-04T06:23:42.478Z,100034.79
2023-04-04T06:26:09.734Z,100036.12
2023-04-04T06:28:47.728Z,100038.09
2023-04-04T06:31:16.838Z,100044.73
2023-04-04T06:33:44.574Z,100045.40
2023-04-04T06:36:11.778Z,100052.66
2023-04-04T06:38:38.601Z,100059.62
2023-04-04T06:41:14.608Z,100064.69
2023-04-04T06:43:41.664Z,100066.66
2023-04-04T06:46:08.914Z,100075.61
2023-04-04T06:48:36.990Z,100079.55
2023-04-04T06:51:07.835Z,100085.58
2023-04-04T06:53:36.007Z,100091.36
2023-04-04T06:56:04.250Z,100093.64
2023-04-04T06:58:32.156Z,100094.56
2023-04-04T07:01:03.724Z,100097.02
2023-04-04T07:03:31.261Z,100093.30
2023-04-04T07:05:58.045Z,100093.19
2023-04-04T07:08:24.813Z,100093.90
2023-04-04T07:10:51.629Z,100088.09
2023-04-04T07:13:18.606Z,100085.40
2023-04-04T07:15:49.647Z,100077.20
2023-04-04T07:18:16.474Z,100070.78
2023-04-04T07:20:46.062Z,100065.36
2023-04-04T07:23:13.063Z,100065.77
2023-04-04T07:25:39.886Z,100065.10
2023-04-04T07:28:12.888Z,100064.38
2023-04-04T07:30:41.131Z,100066.81
2023-04-04T07:33:08.393Z,100067.67
2023-04-04T07:35:35.298Z,100071.66
2023-04-04T07:38:02.774Z,100069.08
2023-04-04T07:40:30.049Z,100070.77
2023-04-04T07:42:57.235Z,100071.30
2023-04-04T07:45:24.075Z,100070.98
2023-04-04T07:47:51.122Z,100073.50
2023-04-04T07:50:18.410Z,100080.01
2023-04-04T07:52:51.840Z,100074.67
2023-04-04T07:55:19.695Z,100086.16
2023-04-04T07:57:46.679Z,100090.95
2023-04-04T08:00:14.086Z,100086.96
2023-04-04T08:02:43.175Z,100083.48
2023-04-04T08:05:10.441Z,100083.46
2023-04-04T08:07:37.269Z,100085.02
2023-04-04T08:10:04.446Z,100077.17
2023-04-04T08:12:31.166Z,100068.04
2023-04-04T08:14:57.949Z,100073.20
2023-04-04T08:17:25.112Z,100070.11
2023-04-04T08:19:51.897Z,100067.17
2023-04-04T08:22:19.135Z,100066.29
2023-04-04T08:24:45.981Z,100065.60
2023-04-04T08:27:14.471Z,100065.73
2023-04-04T08:29:41.465Z,100062.81
2023-04-04T08:32:08.934Z,100063.93
2023-04-04T08:34:35.851Z,100060.17
2023-04-04T08:37:02.872Z,100055.84
2023-04-04T08:39:29.673Z,100052.36
2023-04-04T08:42:04.847Z,100053.70
2023-04-04T08:44:34.233Z,100049.20
2023-04-04T08:47:04.712Z,100044.42
2023-04-04T08:49:36.022Z,100042.44
2023-04-04T08:52:03.294Z,100039.02
2023-04-04T08:54:31.265Z,100038.85
2023-04-04T08:56:58.647Z,100039.54
2023-04-04T08:59:26.372Z,100037.67
2023-04-04T09:02:13.962Z,100023.15
2023-04-04T09:04:44.587Z,100036.83
2023-04-04T09:07:14.534Z,100035.78
2023-04-04T09:09:45.860Z,100038.02
2023-04-04T09:12:14.298Z,100041.77
2023-04-04T09:14:43.546Z,100050.02
2023-04-04T09:17:10.443Z,100049.20
2023-04-04T09:19:37.536Z,100060.92
2023-04-04T09:22:09.008Z,100069.64
2023-04-04T09:24:40.881Z,100075.59
2023-04-04T09:27:11.801Z,100075.61
2023-04-04T09:29:40.006Z,100076.41
2023-04-04T09:32:14.273Z,100074.29
2023-04-04T09:34:43.158Z,100081.31
2023-04-04T09:37:13.714Z,100083.33
2023-04-04T09:39:41.524Z,100084.09
2023-04-04T09:42:08.673Z,100083.66
2023-04-04T09:44:36.362Z,100077.26
2023-04-04T09:49:59.955Z,100057.91
2023-04-04T09:52:27.092Z,100049.20
2023-04-04T09:54:58.042Z,100038.38
2023-04-04T09:57:46.517Z,100042.17
2023-04-04T10:00:19.208Z,100035.71
2023-04-04T10:02:48.097Z,100028.88
2023-04-04T10:05:16.228Z,100029.64
2023-04-04T10:07:44.157Z,100031.02
2023-04-04T10:10:11.261Z,100024.82
2023-04-04T10:12:38.368Z,100023.93
2023-04-04T10:15:05.847Z,100025.11
2023-04-04T10:17:40.430Z,100021.05
2023-04-04T10:20:09.306Z,100018.46
2023-04-04T10:22:38.178Z,100016.63
2023-04-04T10:25:05.792Z,100011.54
2023-04-04T10:27:33.755Z,100006.41
2023-04-04T10:30:01.055Z,100001.72
2023-04-04T10:32:36.864Z,100007.08
2023-04-04T10:35:07.171Z,100008.68
2023-04-04T10:37:45.323Z,100002.64
2023-04-04T10:40:18.989Z,99995.95
2023-04-04T10:42:47.529Z,99985.60
2023-04-04T10:45:20.941Z,99981.63
2023-04-04T10:47:49.706Z,99981.94
2023-04-04T10:50:16.548Z,99976.08
2023-04-04T10:52:45.525Z,99979.55
2023-04-04T10:55:14.493Z,99978.02
2023-04-04T10:57:48.300Z,99972.44
2023-04-04T11:00:19.848Z,99967.32
2023-04-04T11:02:52.549Z,99960.35
2023-04-04T11:05:21.754Z,99959.02
2023-04-04T11:10:30.330Z,99943.55
2023-04-04T11:13:12.706Z,99937.85
2023-04-04T11:16:01.707Z,99930.00
2023-04-04T11:21:04.793Z,99922.20
2023-04-04T11:24:04.267Z,99909.10
2023-04-04T11:26:31.028Z,99894.07
2023-04-04T11:29:08.933Z,99884.98
2023-04-04T11:31:43.525Z,99871.91
2023-04-04T11:34:12.842Z,99851.54
2023-04-04T11:36:40.847Z,99832.69
2023-04-04T11:39:28.136Z,99822.91
2023-04-04T11:41:58.355Z,99829.73
2023-04-04T11:44:28.959Z,99839.48
2023-04-04T11:47:11.311Z,99831.70
2023-04-04T11:49:43.141Z,99827.27
2023-04-04T11:52:12.686Z,99833.31
2023-04-04T11:54:42.160Z,99838.85
2023-04-04T11:57:13.450Z,99837.20
2023-04-04T11:59:42.901Z,99828.86
2023-04-04T12:02:10.689Z,99824.10
2023-04-04T12:04:41.945Z,99817.56
2023-04-04T12:07:12.215Z,99812.27
2023-04-04T12:09:40.179Z,99807.48
2023-04-04T12:12:12.213Z,99810.07
2023-04-04T12:14:39.703Z,99814.88
2023-04-04T12:17:06.787Z,99822.77
2023-04-04T12:19:38.385Z,99838.27
2023-04-04T12:22:05.534Z,99857.27
2023-04-04T12:24:32.686Z,99863.69
2023-04-04T12:26:59.977Z,99869.58
2023-04-04T12:29:28.380Z,99878.55
2023-04-04T12:31:57.183Z,99889.00
2023-04-04T12:37:02.058Z,99897.08
2023-04-04T12:39:29.710Z,99897.48
2023-04-04T12:41:59.456Z,99894.65
2023-04-04T12:44:30.331Z,99894.86
2023-04-04T12:47:02.670Z,99891.29
2023-04-04T12:49:48.319Z,99885.80
2023-04-04T12:52:22.705Z,99879.71
2023-04-04T12:55:06.709Z,99875.04
2023-04-04T12:57:36.205Z,99873.79
2023-04-04T13:00:05.884Z,99875.95
2023-04-04T13:02:35.590Z,99873.39
2023-04-04T13:05:03.693Z,99868.02
2023-04-04T13:07:34.463Z,99859.95
2023-04-04T13:10:04.521Z,99851.53
2023-04-04T13:12:53.256Z,99849.89
2023-04-04T13:15:20.102Z,99858.55
2023-04-04T13:17:48.986Z,99859.64
2023-04-04T13:20:18.055Z,99865.84
2023-04-04T13:22:45.105Z,99866.21
2023-04-04T13:25:11.989Z,99854.73
2023-04-04T13:27:38.968Z,99864.03
2023-04-04T13:30:08.153Z,99866.30
2023-04-04T13:32:36.219Z,99870.42
2023-04-04T13:35:03.251Z,99869.11
2023-04-04T13:37:30.082Z,99862.14
2023-04-04T13:39:56.866Z,99857.70
2023-04-04T13:42:29.551Z,99868.54
2023-04-04T13:44:56.926Z,99869.60
2023-04-04T13:47:26.961Z,99863.64
2023-04-04T13:49:54.580Z,99860.91
2023-04-04T13:52:21.719Z,99864.86
2023-04-04T13:54:49.725Z,99866.96
2023-04-04T13:57:16.584Z,99864.51
2023-04-04T13:59:43.556Z,99856.95
2023-04-04T14:02:10.477Z,99857.48
2023-04-04T14:04:37.461Z,99863.83
2023-04-04T14:07:04.451Z,99861.27
2023-04-04T14:09:31.312Z,99857.18
2023-04-04T14:11:58.323Z,99851.55
2023-04-04T14:14:25.746Z,99848.77
2023-04-04T14:16:52.571Z,99851.73
2023-04-04T14:19:19.621Z,99850.86
2023-04-04T14:22:00.372Z,99852.56
2023-04-04T14:24:27.394Z,99854.78
2023-04-04T14:26:54.371Z,99848.47
2023-04-04T14:29:21.488Z,99845.36
2023-04-04T14:31:48.538Z,99848.60
2023-04-04T14:34:15.543Z,99841.74
2023-04-04T14:36:42.451Z,99840.05
2023-04-04T14:39:09.391Z,99845.02
2023-04-04T14:41:36.162Z,99845.36
2023-04-04T14:44:03.189Z,99845.73
2023-04-04T14:46:30.489Z,99844.91
2023-04-04T14:48:57.775Z,99843.77
2023-04-04T14:51:24.638Z,99842.98
2023-04-04T14:53:52.044Z,99844.71
2023-04-04T14:56:20.603Z,99847.08
2023-04-04T14:58:49.979Z,99837.70
2023-04-04T15:01:17.616Z,99845.27
2023-04-04T15:03:44.500Z,99853.00
2023-04-04T15:06:11.397Z,99860.23
2023-04-04T15:08:38.136Z,99864.19
2023-04-04T15:11:04.949Z,99862.49
2023-04-04T15:13:33.010Z,99863.33
2023-04-04T15:16:01.099Z,99862.52
2023-04-04T15:18:28.094Z,99861.27
2023-04-04T15:20:58.128Z,99861.98
2023-04-04T15:23:25.275Z,99859.40
2023-04-04T15:25:52.181Z,99856.14
2023-04-04T15:28:18.982Z,99864.36
2023-04-04T15:30:45.758Z,99869.86
2023-04-04T15:33:12.611Z,99874.98
2023-04-04T15:35:39.420Z,99878.41
2023-04-04T15:38:06.239Z,99881.33
2023-04-04T15:40:32.996Z,99882.55
2023-04-04T15:42:59.798Z,99884.09
2023-04-04T15:45:26.921Z,99878.02
2023-04-04T15:47:53.926Z,99887.67
2023-04-04T15:50:21.021Z,99886.84
2023-04-04T15:52:48.202Z,99886.31
2023-04-04T15:55:16.486Z,99885.48
2023-04-04T15:57:44.168Z,99882.64
2023-04-04T16:00:19.051Z,99879.39
2023-04-04T16:02:46.198Z,99880.27
2023-04-04T16:05:13.305Z,99877.40
2023-04-04T16:07:40.445Z,99867.63
2023-04-04T16:10:08.563Z,99860.27
2023-04-04T16:12:35.642Z,99856.89
2023-04-04T16:15:05.176Z,99855.56
2023-04-04T16:17:33.379Z,99861.05
2023-04-04T16:20:00.613Z,99862.09
2023-04-04T16:22:27.646Z,99861.60
2023-04-04T16:24:54.707Z,99863.50
2023-04-04T16:27:21.791Z,99867.30
2023-04-04T16:29:48.883Z,99868.02
2023-04-04T16:32:15.813Z,99866.80
2023-04-04T16:34:42.837Z,99864.76
2023-04-04T16:37:11.377Z,99870.27
2023-04-04T16:39:38.576Z,99875.42
2023-04-04T16:42:05.375Z,99872.52
2023-04-04T16:44:32.148Z,99870.33
2023-04-04T16:46:59.114Z,99871.55
2023-04-04T16:49:26.137Z,99873.94
2023-04-04T16:51:53.286Z,99870.68
2023-04-04T16:54:20.414Z,99868.63
2023-04-04T16:56:47.269Z,99866.21
2023-04-04T16:59:16.034Z,99867.09
2023-04-04T17:01:43.715Z,99867.09
2023-04-04T17:04:10.989Z,99860.43
2023-04-04T17:06:38.410Z,99860.25
2023-04-04T17:09:05.602Z,99865.06
2023-04-04T17:11:32.384Z,99868.64
2023-04-04T17:13:59.896Z,99870.52
2023-04-04T17:16:27.496Z,99865.23
2023-04-04T17:18:54.436Z,99869.17
2023-04-04T17:21:21.395Z,99867.48
2023-04-04T17:23:48.586Z,99871.63
2023-04-04T17:26:15.421Z,99864.45
2023-04-04T17:28:42.330Z,99866.30
2023-04-04T17:31:09.180Z,99864.11
2023-04-04T17:33:36.120Z,99863.27
2023-04-04T17:36:03.377Z,99866.17
2023-04-04T17:38:30.346Z,99865.34
2023-04-04T17:41:00.194Z,99864.13
2023-04-04T17:43:27.405Z,99864.28
2023-04-04T17:45:54.407Z,99862.40
2023-04-04T18:11:11.867Z,99853.46
2023-04-04T18:13:39.297Z,99853.85
2023-04-04T18:16:10.144Z,99854.22
2023-04-04T18:18:38.704Z,99856.33
2023-04-04T18:21:06.889Z,99858.70
2023-04-04T18:23:33.738Z,99857.88
2023-04-04T18:26:01.542Z,99856.89
2023-04-04T18:28:28.724Z,99856.40
2023-04-04T18:30:55.900Z,99846.98
2023-04-04T18:33:24.545Z,99846.48
2023-04-04T18:35:51.494Z,99840.00
2023-04-04T18:38:18.801Z,99844.94
2023-04-04T18:40:46.093Z,99840.35
2023-04-04T18:43:13.492Z,99839.34
2023-04-04T18:45:41.017Z,99834.38
2023-04-04T18:48:08.044Z,99829.05
2023-04-04T18:50:35.256Z,99823.06
2023-04-04T18:53:02.133Z,99817.60
2023-04-04T18:55:28.954Z,99817.98
2023-04-04T18:57:57.109Z,99812.85
2023-04-04T19:00:30.215Z,99814.20
2023-04-04T19:03:07.069Z,99806.34
2023-04-04T19:05:37.758Z,99801.54
2023-04-04T19:08:10.388Z,99802.38
2023-04-04T19:10:39.108Z,99807.52
2023-04-04T19:13:06.278Z,99807.88
2023-04-04T19:15:34.434Z,99802.05
2023-04-04T19:18:02.018Z,99804.77
2023-04-04T19:20:29.220Z,99798.94
2023-04-04T19:23:11.029Z,99797.40
2023-04-04T19:25:55.451Z,99797.88
2023-04-04T19:28:23.389Z,99797.53
2023-04-04T19:30:53.729Z,99800.23
2023-04-04T19:33:25.594Z,99794.54
2023-04-04T19:36:11.301Z,99793.65
2023-04-04T19:38:41.813Z,99795.38
2023-04-04T19:41:26.907Z,99793.45
2023-04-04T19:43:53.778Z,99796.66
2023-04-04T19:46:25.977Z,99793.41
2023-04-04T19:48:54.580Z,99795.27
2023-04-04T19:51:21.256Z,99799.72
2023-04-04T19:53:55.291Z,99799.88
2023-04-04T19:56:44.492Z,99796.78
2023-04-04T19:59:56.601Z,99783.39
2023-04-04T20:02:33.797Z,99783.55
2023-04-04T20:05:28.567Z,99786.10
2023-04-04T20:07:55.339Z,99785.07
2023-04-04T20:10:41.621Z,99788.50
2023-04-04T20:13:09.664Z,99790.23
2023-04-04T20:16:04.456Z,99790.77
2023-04-04T20:18:32.412Z,99794.23
2023-04-04T20:21:11.783Z,99798.71
2023-04-04T20:23:45.364Z,99798.38
2023-04-04T20:26:33.022Z,99799.75
2023-04-04T20:28:59.863Z,99805.23
2023-04-04T20:31:26.649Z,99803.19
2023-04-04T20:33:53.458Z,99809.86
2023-04-04T20:36:20.424Z,99803.52
2023-04-04T20:38:48.386Z,99800.81
2023-04-04T20:41:46.785Z,99798.73
2023-04-04T20:44:18.765Z,99792.38
2023-04-04T20:46:45.508Z,99796.34
2023-04-04T20:49:19.210Z,99794.95
2023-04-04T20:51:46.073Z,99795.65
2023-04-04T20:54:15.078Z,99795.33
2023-04-04T20:57:02.182Z,99795.23
2023-04-04T20:59:34.822Z,99790.78
2023-04-04T21:02:16.338Z,99790.61
2023-04-04T21:04:45.245Z,99786.34
2023-04-04T21:07:38.316Z,99783.09
2023-04-04T21:10:23.155Z,99785.14
2023-04-04T21:12:51.314Z,99780.33
2023-04-04T21:15:25.854Z,99784.14
2023-04-04T21:17:52.771Z,99777.98
2023-04-04T21:20:47.351Z,99774.10
2023-04-04T21:23:43.560Z,99771.73
2023-04-04T21:26:36.640Z,99773.28
2023-04-04T21:29:16.121Z,99766.46
2023-04-04T21:31:43.267Z,99773.83
2023-04-04T21:34:16.592Z,99768.00
2023-04-04T21:36:45.636Z,99774.83
2023-04-04T21:39:23.195Z,99775.56
2023-04-04T21:41:57.606Z,99774.57
2023-04-04T21:44:25.659Z,99770.45
2023-04-04T21:46:54.743Z,99769.24
2023-04-04T21:49:22.735Z,99764.48
2023-04-04T21:51:50.144Z,99763.64
2023-04-04T21:54:17.235Z,99765.05
2023-04-04T21:56:44.066Z,99764.17
2023-04-04T21:59:10.963Z,99767.95
2023-04-04T22:01:38.552Z,99774.16
2023-04-04T22:04:05.695Z,99765.42
2023-04-04T22:06:32.523Z,99766.50
2023-04-04T22:09:01.125Z,99767.67
2023-04-04T22:11:28.596Z,99768.32
2023-04-04T22:14:06.265Z,99771.90
2023-04-04T22:16:38.239Z,99772.72
2023-04-04T22:19:05.119Z,99770.81
2023-04-04T22:21:35.678Z,99769.95
2023-04-04T22:24:02.796Z,99771.16
2023-04-04T22:26:32.792Z,99770.14
2023-04-04T22:29:02.329Z,99769.61
2023-04-04T22:31:29.274Z,99768.27
2023-04-04T22:33:56.128Z,99771.20
2023-04-04T22:36:24.054Z,99776.19
2023-04-04T22:38:56.015Z,99775.19
2023-04-04T22:41:26.781Z,99770.73
2023-04-04T22:43:53.676Z,99770.06
2023-04-04T22:46:20.629Z,99767.31
2023-04-04T22:48:47.771Z,99762.80
2023-04-04T22:51:15.184Z,99764.50
2023-04-04T22:53:43.502Z,99761.94
2023-04-04T22:56:10.671Z,99766.69
2023-04-04T22:58:37.936Z,99769.61
2023-04-04T23:01:05.631Z,99768.73
2023-04-04T23:03:32.398Z,99770.27
2023-04-04T23:05:59.118Z,99771.83
2023-04-04T23:08:25.992Z,99773.92
2023-04-04T23:10:52.827Z,99776.84
2023-04-04T23:13:20.277Z,99780.64
2023-04-04T23:15:47.048Z,99781.67
2023-04-04T23:18:14.008Z,99781.02
2023-04-04T23:20:41.506Z,99778.15
2023-04-04T23:23:08.513Z,99776.82
2023-04-04T23:25:35.470Z,99772.89
2023-04-04T23:28:02.304Z,99763.98
2023-04-04T23:30:29.216Z,99767.20
2023-04-04T23:32:56.098Z,99764.27
2023-04-04T23:35:22.975Z,99757.61
2023-04-04T23:37:49.850Z,99750.28
2023-04-04T23:40:16.973Z,99752.18
2023-04-04T23:42:43.768Z,99746.70
2023-04-04T23:45:11.211Z,99740.38
2023-04-04T23:47:38.406Z,99735.39
2023-04-04T23:50:06.972Z,99730.11
2023-04-04T23:52:34.593Z,99732.17
2023-04-04T23:55:01.405Z,99735.42
2023-04-04T23:57:28.228Z,99727.71
2023-04-04T23:59:55.297Z,99729.25
